sensor_id;sensor_type;location;lat;lon;timestamp;P1;durP1;ratioP1;P2;durP2;ratioP2
75169;SDS011;63749;49.186;9.222;2022-11-20T00:01:23;31.40;;;12.63;;
75169;SDS011;63749;49.186;9.222;2022-11-20T00:03:50;31.63;;;12.68;;
75169;SDS011;63749;49.186;9.222;2022-11-20T00:06:17;33.55;;;12.32;;
75169;SDS011;63749;49.186;9.222;2022-11-20T00:08:43;29.05;;;11.85;;
75169;SDS011;63749;49.186;9.222;2022-11-20T00:11:10;32.27;;;12.53;;
75169;SDS011;63749;49.186;9.222;2022-11-20T00:13:56;29.17;;;11.80;;
75169;SDS011;63749;49.186;9.222;2022-11-20T00:16:24;33.42;;;12.63;;
75169;SDS011;63749;49.186;9.222;2022-11-20T00:18:51;31.65;;;12.00;;
75169;SDS011;63749;49.186;9.222;2022-11-20T00:21:22;29.55;;;12.00;;
75169;SDS011;63749;49.186;9.222;2022-11-20T00:23:49;32.27;;;12.57;;
75169;SDS011;63749;49.186;9.222;2022-11-20T00:26:16;33.75;;;13.50;;
75169;SDS011;63749;49.186;9.222;2022-11-20T00:28:43;30.38;;;12.65;;
75169;SDS011;63749;49.186;9.222;2022-11-20T00:31:14;29.63;;;12.25;;
75169;SDS011;63749;49.186;9.222;2022-11-20T00:33:40;27.17;;;11.30;;
75169;SDS011;63749;49.186;9.222;2022-11-20T00:36:08;30.53;;;12.23;;
75169;SDS011;63749;49.186;9.222;2022-11-20T00:38:35;28.48;;;11.57;;
75169;SDS011;63749;49.186;9.222;2022-11-20T00:41:01;29.95;;;12.27;;
75169;SDS011;63749;49.186;9.222;2022-11-20T00:43:29;29.13;;;11.60;;
75169;SDS011;63749;49.186;9.222;2022-11-20T00:45:57;27.80;;;12.10;;
75169;SDS011;63749;49.186;9.222;2022-11-20T00:48:23;28.27;;;11.57;;
75169;SDS011;63749;49.186;9.222;2022-11-20T00:50:49;28.20;;;11.93;;
75169;SDS011;63749;49.186;9.222;2022-11-20T00:53:14;29.03;;;11.53;;
75169;SDS011;63749;49.186;9.222;2022-11-20T00:55:39;27.83;;;11.23;;
75169;SDS011;63749;49.186;9.222;2022-11-20T00:58:05;23.52;;;10.70;;
75169;SDS011;63749;49.186;9.222;2022-11-20T01:00:31;26.80;;;11.27;;
75169;SDS011;63749;49.186;9.222;2022-11-20T01:02:56;28.37;;;11.67;;
75169;SDS011;63749;49.186;9.222;2022-11-20T01:05:21;26.97;;;11.37;;
75169;SDS011;63749;49.186;9.222;2022-11-20T01:07:47;27.53;;;11.80;;
75169;SDS011;63749;49.186;9.222;2022-11-20T01:10:12;27.00;;;11.27;;
75169;SDS011;63749;49.186;9.222;2022-11-20T01:12:37;31.33;;;12.67;;
75169;SDS011;63749;49.186;9.222;2022-11-20T01:15:03;25.33;;;10.77;;
75169;SDS011;63749;49.186;9.222;2022-11-20T01:17:28;25.48;;;10.57;;
75169;SDS011;63749;49.186;9.222;2022-11-20T01:19:56;25.77;;;11.15;;
75169;SDS011;63749;49.186;9.222;2022-11-20T01:22:21;25.47;;;11.00;;
75169;SDS011;63749;49.186;9.222;2022-11-20T01:27:22;27.38;;;10.63;;
75169;SDS011;63749;49.186;9.222;2022-11-20T01:29:47;24.10;;;9.97;;
75169;SDS011;63749;49.186;9.222;2022-11-20T01:32:12;26.17;;;11.27;;
75169;SDS011;63749;49.186;9.222;2022-11-20T01:34:38;23.97;;;10.27;;
75169;SDS011;63749;49.186;9.222;2022-11-20T01:37:03;27.30;;;11.10;;
75169;SDS011;63749;49.186;9.222;2022-11-20T01:39:28;25.63;;;11.33;;
75169;SDS011;63749;49.186;9.222;2022-11-20T01:41:54;28.17;;;11.63;;
75169;SDS011;63749;49.186;9.222;2022-11-20T01:45:00;29.50;;;12.30;;
75169;SDS011;63749;49.186;9.222;2022-11-20T01:49:59;30.15;;;12.32;;
75169;SDS011;63749;49.186;9.222;2022-11-20T01:52:30;27.33;;;11.95;;
75169;SDS011;63749;49.186;9.222;2022-11-20T01:57:29;27.20;;;11.73;;
75169;SDS011;63749;49.186;9.222;2022-11-20T01:59:59;30.10;;;12.00;;
75169;SDS011;63749;49.186;9.222;2022-11-20T02:02:26;28.52;;;11.43;;
75169;SDS011;63749;49.186;9.222;2022-11-20T02:04:52;28.17;;;11.63;;
75169;SDS011;63749;49.186;9.222;2022-11-20T02:07:22;29.80;;;12.23;;
75169;SDS011;63749;49.186;9.222;2022-11-20T02:09:48;30.27;;;11.83;;
75169;SDS011;63749;49.186;9.222;2022-11-20T02:12:14;30.88;;;12.40;;
75169;SDS011;63749;49.186;9.222;2022-11-20T02:14:59;28.75;;;11.50;;
75169;SDS011;63749;49.186;9.222;2022-11-20T02:17:25;28.60;;;11.63;;
75169;SDS011;63749;49.186;9.222;2022-11-20T02:19:51;26.60;;;11.43;;
75169;SDS011;63749;49.186;9.222;2022-11-20T02:22:22;30.60;;;11.97;;
75169;SDS011;63749;49.186;9.222;2022-11-20T02:24:54;29.33;;;12.35;;
75169;SDS011;63749;49.186;9.222;2022-11-20T02:27:21;27.10;;;12.20;;
75169;SDS011;63749;49.186;9.222;2022-11-20T02:29:48;32.33;;;12.25;;
75169;SDS011;63749;49.186;9.222;2022-11-20T02:34:50;29.85;;;11.88;;
75169;SDS011;63749;49.186;9.222;2022-11-20T02:37:16;28.83;;;12.17;;
75169;SDS011;63749;49.186;9.222;2022-11-20T02:39:43;27.17;;;11.48;;
75169;SDS011;63749;49.186;9.222;2022-11-20T02:42:10;27.70;;;12.18;;
75169;SDS011;63749;49.186;9.222;2022-11-20T02:44:36;33.27;;;12.87;;
75169;SDS011;63749;49.186;9.222;2022-11-20T02:47:01;30.80;;;12.13;;
75169;SDS011;63749;49.186;9.222;2022-11-20T02:49:26;30.27;;;12.33;;
75169;SDS011;63749;49.186;9.222;2022-11-20T02:51:52;31.90;;;12.93;;
75169;SDS011;63749;49.186;9.222;2022-11-20T02:54:17;30.77;;;12.33;;
75169;SDS011;63749;49.186;9.222;2022-11-20T02:56:42;32.77;;;13.00;;
75169;SDS011;63749;49.186;9.222;2022-11-20T02:59:08;32.03;;;12.60;;
75169;SDS011;63749;49.186;9.222;2022-11-20T03:01:34;30.67;;;12.80;;
75169;SDS011;63749;49.186;9.222;2022-11-20T03:03:59;34.83;;;12.53;;
75169;SDS011;63749;49.186;9.222;2022-11-20T03:06:25;33.53;;;13.15;;
75169;SDS011;63749;49.186;9.222;2022-11-20T03:08:50;35.00;;;12.97;;
75169;SDS011;63749;49.186;9.222;2022-11-20T03:11:15;32.77;;;12.93;;
75169;SDS011;63749;49.186;9.222;2022-11-20T03:13:41;33.58;;;12.95;;
75169;SDS011;63749;49.186;9.222;2022-11-20T03:16:12;31.90;;;13.20;;
75169;SDS011;63749;49.186;9.222;2022-11-20T03:18:39;35.88;;;14.02;;
75169;SDS011;63749;49.186;9.222;2022-11-20T03:21:06;34.05;;;13.60;;
75169;SDS011;63749;49.186;9.222;2022-11-20T03:23:32;32.80;;;13.37;;
75169;SDS011;63749;49.186;9.222;2022-11-20T03:26:08;38.15;;;14.32;;
75169;SDS011;63749;49.186;9.222;2022-11-20T03:28:38;32.40;;;13.38;;
75169;SDS011;63749;49.186;9.222;2022-11-20T03:31:10;32.73;;;12.87;;
75169;SDS011;63749;49.186;9.222;2022-11-20T03:33:37;33.58;;;13.60;;
75169;SDS011;63749;49.186;9.222;2022-11-20T03:36:04;37.97;;;14.30;;
75169;SDS011;63749;49.186;9.222;2022-11-20T03:38:30;38.50;;;14.65;;
75169;SDS011;63749;49.186;9.222;2022-11-20T03:41:00;40.67;;;14.98;;
75169;SDS011;63749;49.186;9.222;2022-11-20T03:43:26;37.57;;;14.70;;
75169;SDS011;63749;49.186;9.222;2022-11-20T03:45:52;39.63;;;14.95;;
75169;SDS011;63749;49.186;9.222;2022-11-20T03:48:18;38.63;;;14.27;;
75169;SDS011;63749;49.186;9.222;2022-11-20T03:50:43;37.27;;;14.53;;
75169;SDS011;63749;49.186;9.222;2022-11-20T03:53:08;36.43;;;14.73;;
75169;SDS011;63749;49.186;9.222;2022-11-20T03:55:33;35.95;;;14.02;;
75169;SDS011;63749;49.186;9.222;2022-11-20T03:57:59;39.87;;;15.10;;
75169;SDS011;63749;49.186;9.222;2022-11-20T04:00:24;34.80;;;14.37;;
75169;SDS011;63749;49.186;9.222;2022-11-20T04:02:49;35.37;;;14.10;;
75169;SDS011;63749;49.186;9.222;2022-11-20T04:05:15;32.70;;;14.33;;
75169;SDS011;63749;49.186;9.222;2022-11-20T04:07:40;31.67;;;13.73;;
75169;SDS011;63749;49.186;9.222;2022-11-20T04:10:05;33.93;;;13.67;;
75169;SDS011;63749;49.186;9.222;2022-11-20T04:12:32;37.72;;;14.82;;
75169;SDS011;63749;49.186;9.222;2022-11-20T04:14:58;33.60;;;14.30;;
75169;SDS011;63749;49.186;9.222;2022-11-20T04:17:23;35.42;;;14.07;;
75169;SDS011;63749;49.186;9.222;2022-11-20T04:19:49;34.67;;;14.30;;
75169;SDS011;63749;49.186;9.222;2022-11-20T04:22:14;33.57;;;13.53;;
75169;SDS011;63749;49.186;9.222;2022-11-20T04:24:39;35.83;;;14.30;;
75169;SDS011;63749;49.186;9.222;2022-11-20T04:27:04;36.47;;;15.10;;
75169;SDS011;63749;49.186;9.222;2022-11-20T04:29:30;36.67;;;14.43;;
75169;SDS011;63749;49.186;9.222;2022-11-20T04:31:55;38.23;;;14.63;;
75169;SDS011;63749;49.186;9.222;2022-11-20T04:34:20;34.07;;;14.20;;
75169;SDS011;63749;49.186;9.222;2022-11-20T04:36:46;39.67;;;14.43;;
75169;SDS011;63749;49.186;9.222;2022-11-20T04:39:11;37.22;;;14.93;;
75169;SDS011;63749;49.186;9.222;2022-11-20T04:41:38;37.07;;;14.47;;
75169;SDS011;63749;49.186;9.222;2022-11-20T04:44:05;37.17;;;14.63;;
75169;SDS011;63749;49.186;9.222;2022-11-20T04:46:35;37.75;;;14.82;;
75169;SDS011;63749;49.186;9.222;2022-11-20T04:49:02;36.22;;;14.48;;
75169;SDS011;63749;49.186;9.222;2022-11-20T04:51:28;36.30;;;14.15;;
75169;SDS011;63749;49.186;9.222;2022-11-20T04:53:53;29.23;;;13.03;;
75169;SDS011;63749;49.186;9.222;2022-11-20T04:56:19;30.37;;;12.67;;
75169;SDS011;63749;49.186;9.222;2022-11-20T04:58:44;32.30;;;13.23;;
75169;SDS011;63749;49.186;9.222;2022-11-20T05:01:11;30.08;;;12.80;;
75169;SDS011;63749;49.186;9.222;2022-11-20T05:03:41;27.75;;;11.55;;
75169;SDS011;63749;49.186;9.222;2022-11-20T05:06:08;27.87;;;12.37;;
75169;SDS011;63749;49.186;9.222;2022-11-20T05:08:34;30.45;;;12.70;;
75169;SDS011;63749;49.186;9.222;2022-11-20T05:11:00;33.78;;;12.85;;
75169;SDS011;63749;49.186;9.222;2022-11-20T05:13:27;25.93;;;10.80;;
75169;SDS011;63749;49.186;9.222;2022-11-20T05:15:53;26.80;;;11.50;;
75169;SDS011;63749;49.186;9.222;2022-11-20T05:18:18;29.43;;;12.30;;
75169;SDS011;63749;49.186;9.222;2022-11-20T05:20:43;32.97;;;11.93;;
75169;SDS011;63749;49.186;9.222;2022-11-20T05:23:09;29.98;;;12.10;;
75169;SDS011;63749;49.186;9.222;2022-11-20T05:25:35;31.87;;;12.50;;
75169;SDS011;63749;49.186;9.222;2022-11-20T05:28:01;31.90;;;12.40;;
75169;SDS011;63749;49.186;9.222;2022-11-20T05:30:26;41.57;;;13.17;;
75169;SDS011;63749;49.186;9.222;2022-11-20T05:32:51;32.13;;;13.40;;
75169;SDS011;63749;49.186;9.222;2022-11-20T05:35:16;40.40;;;13.83;;
75169;SDS011;63749;49.186;9.222;2022-11-20T05:37:42;33.23;;;12.83;;
75169;SDS011;63749;49.186;9.222;2022-11-20T05:40:07;30.37;;;13.07;;
75169;SDS011;63749;49.186;9.222;2022-11-20T05:42:33;33.53;;;12.60;;
75169;SDS011;63749;49.186;9.222;2022-11-20T05:44:59;30.57;;;12.13;;
75169;SDS011;63749;49.186;9.222;2022-11-20T05:47:26;27.45;;;12.13;;
75169;SDS011;63749;49.186;9.222;2022-11-20T05:49:53;29.98;;;13.27;;
75169;SDS011;63749;49.186;9.222;2022-11-20T05:52:18;27.27;;;11.63;;
75169;SDS011;63749;49.186;9.222;2022-11-20T05:54:43;34.63;;;13.53;;
75169;SDS011;63749;49.186;9.222;2022-11-20T05:57:09;29.53;;;12.50;;
75169;SDS011;63749;49.186;9.222;2022-11-20T05:59:34;29.57;;;12.60;;
75169;SDS011;63749;49.186;9.222;2022-11-20T06:01:59;30.35;;;13.15;;
75169;SDS011;63749;49.186;9.222;2022-11-20T06:04:25;29.30;;;12.47;;
75169;SDS011;63749;49.186;9.222;2022-11-20T06:06:50;28.13;;;11.90;;
75169;SDS011;63749;49.186;9.222;2022-11-20T06:09:15;28.40;;;12.23;;
75169;SDS011;63749;49.186;9.222;2022-11-20T06:11:41;29.27;;;12.53;;
75169;SDS011;63749;49.186;9.222;2022-11-20T06:14:06;26.23;;;10.90;;
75169;SDS011;63749;49.186;9.222;2022-11-20T06:16:31;25.37;;;11.60;;
75169;SDS011;63749;49.186;9.222;2022-11-20T06:18:57;29.90;;;11.60;;
75169;SDS011;63749;49.186;9.222;2022-11-20T06:21:22;27.73;;;11.87;;
75169;SDS011;63749;49.186;9.222;2022-11-20T06:23:48;24.23;;;11.30;;
75169;SDS011;63749;49.186;9.222;2022-11-20T06:26:16;24.88;;;11.65;;
75169;SDS011;63749;49.186;9.222;2022-11-20T06:28:44;25.80;;;11.50;;
75169;SDS011;63749;49.186;9.222;2022-11-20T06:31:12;24.17;;;12.00;;
75169;SDS011;63749;49.186;9.222;2022-11-20T06:33:38;26.70;;;11.85;;
75169;SDS011;63749;49.186;9.222;2022-11-20T06:36:04;25.97;;;11.70;;
75169;SDS011;63749;49.186;9.222;2022-11-20T06:38:30;25.95;;;10.77;;
75169;SDS011;63749;49.186;9.222;2022-11-20T06:40:55;23.57;;;11.03;;
75169;SDS011;63749;49.186;9.222;2022-11-20T06:43:21;25.37;;;11.07;;
75169;SDS011;63749;49.186;9.222;2022-11-20T06:45:51;23.92;;;11.30;;
75169;SDS011;63749;49.186;9.222;2022-11-20T06:48:18;25.45;;;11.30;;
75169;SDS011;63749;49.186;9.222;2022-11-20T06:50:43;28.93;;;13.43;;
75169;SDS011;63749;49.186;9.222;2022-11-20T06:53:08;32.40;;;14.27;;
75169;SDS011;63749;49.186;9.222;2022-11-20T06:55:33;29.30;;;13.23;;
75169;SDS011;63749;49.186;9.222;2022-11-20T06:57:59;30.20;;;13.90;;
75169;SDS011;63749;49.186;9.222;2022-11-20T07:00:24;33.00;;;14.73;;
75169;SDS011;63749;49.186;9.222;2022-11-20T07:02:50;28.05;;;13.75;;
75169;SDS011;63749;49.186;9.222;2022-11-20T07:05:15;27.03;;;13.53;;
75169;SDS011;63749;49.186;9.222;2022-11-20T07:07:41;27.50;;;13.30;;
75169;SDS011;63749;49.186;9.222;2022-11-20T07:10:07;27.70;;;13.70;;
75169;SDS011;63749;49.186;9.222;2022-11-20T07:12:32;27.67;;;13.20;;
75169;SDS011;63749;49.186;9.222;2022-11-20T07:14:58;28.03;;;12.93;;
75169;SDS011;63749;49.186;9.222;2022-11-20T07:17:23;29.27;;;12.67;;
75169;SDS011;63749;49.186;9.222;2022-11-20T07:19:48;26.83;;;12.37;;
75169;SDS011;63749;49.186;9.222;2022-11-20T07:22:14;30.63;;;11.97;;
75169;SDS011;63749;49.186;9.222;2022-11-20T07:24:39;24.08;;;11.15;;
75169;SDS011;63749;49.186;9.222;2022-11-20T07:27:04;24.33;;;11.57;;
75169;SDS011;63749;49.186;9.222;2022-11-20T07:29:30;22.37;;;10.63;;
75169;SDS011;63749;49.186;9.222;2022-11-20T07:31:55;22.90;;;10.63;;
75169;SDS011;63749;49.186;9.222;2022-11-20T07:34:21;24.45;;;10.95;;
75169;SDS011;63749;49.186;9.222;2022-11-20T07:36:47;22.33;;;10.73;;
75169;SDS011;63749;49.186;9.222;2022-11-20T07:39:12;20.47;;;10.73;;
75169;SDS011;63749;49.186;9.222;2022-11-20T07:41:37;23.27;;;10.90;;
75169;SDS011;63749;49.186;9.222;2022-11-20T07:44:03;20.60;;;10.20;;
75169;SDS011;63749;49.186;9.222;2022-11-20T07:46:28;22.50;;;11.77;;
75169;SDS011;63749;49.186;9.222;2022-11-20T07:48:54;23.10;;;11.63;;
75169;SDS011;63749;49.186;9.222;2022-11-20T07:51:19;25.13;;;11.83;;
75169;SDS011;63749;49.186;9.222;2022-11-20T07:53:44;23.67;;;11.20;;
75169;SDS011;63749;49.186;9.222;2022-11-20T07:56:09;21.10;;;10.70;;
75169;SDS011;63749;49.186;9.222;2022-11-20T07:58:35;16.70;;;8.55;;
75169;SDS011;63749;49.186;9.222;2022-11-20T08:01:04;16.80;;;8.53;;
75169;SDS011;63749;49.186;9.222;2022-11-20T08:03:31;19.23;;;9.25;;
75169;SDS011;63749;49.186;9.222;2022-11-20T08:05:59;15.93;;;8.10;;
75169;SDS011;63749;49.186;9.222;2022-11-20T08:08:26;13.85;;;7.40;;
75169;SDS011;63749;49.186;9.222;2022-11-20T08:10:51;11.73;;;6.80;;
75169;SDS011;63749;49.186;9.222;2022-11-20T08:13:16;13.30;;;6.73;;
75169;SDS011;63749;49.186;9.222;2022-11-20T08:16:00;10.77;;;5.10;;
75169;SDS011;63749;49.186;9.222;2022-11-20T08:18:26;9.97;;;5.00;;
75169;SDS011;63749;49.186;9.222;2022-11-20T08:20:51;9.07;;;4.50;;
75169;SDS011;63749;49.186;9.222;2022-11-20T08:23:16;9.67;;;4.43;;
75169;SDS011;63749;49.186;9.222;2022-11-20T08:25:42;6.18;;;3.78;;
75169;SDS011;63749;49.186;9.222;2022-11-20T08:28:08;5.40;;;3.30;;
75169;SDS011;63749;49.186;9.222;2022-11-20T08:30:35;5.17;;;3.20;;
75169;SDS011;63749;49.186;9.222;2022-11-20T08:33:05;5.25;;;3.38;;
75169;SDS011;63749;49.186;9.222;2022-11-20T08:35:33;6.70;;;3.40;;
75169;SDS011;63749;49.186;9.222;2022-11-20T08:38:03;5.65;;;2.92;;
75169;SDS011;63749;49.186;9.222;2022-11-20T08:40:29;5.63;;;3.17;;
75169;SDS011;63749;49.186;9.222;2022-11-20T08:42:55;6.43;;;3.20;;
75169;SDS011;63749;49.186;9.222;2022-11-20T08:45:20;7.23;;;3.60;;
75169;SDS011;63749;49.186;9.222;2022-11-20T08:47:45;8.02;;;3.95;;
75169;SDS011;63749;49.186;9.222;2022-11-20T08:50:11;10.73;;;4.00;;
75169;SDS011;63749;49.186;9.222;2022-11-20T08:52:38;5.18;;;3.08;;
75169;SDS011;63749;49.186;9.222;2022-11-20T08:55:04;7.27;;;3.70;;
75169;SDS011;63749;49.186;9.222;2022-11-20T08:57:34;6.28;;;2.80;;
75169;SDS011;63749;49.186;9.222;2022-11-20T09:00:00;5.95;;;3.70;;
75169;SDS011;63749;49.186;9.222;2022-11-20T09:02:26;4.90;;;2.70;;
75169;SDS011;63749;49.186;9.222;2022-11-20T09:04:51;5.37;;;2.90;;
75169;SDS011;63749;49.186;9.222;2022-11-20T09:07:18;6.13;;;3.08;;
75169;SDS011;63749;49.186;9.222;2022-11-20T09:09:43;5.70;;;3.00;;
75169;SDS011;63749;49.186;9.222;2022-11-20T09:12:09;4.90;;;2.73;;
75169;SDS011;63749;49.186;9.222;2022-11-20T09:14:34;6.77;;;3.13;;
75169;SDS011;63749;49.186;9.222;2022-11-20T09:16:59;7.20;;;3.60;;
75169;SDS011;63749;49.186;9.222;2022-11-20T09:19:25;6.27;;;3.20;;
75169;SDS011;63749;49.186;9.222;2022-11-20T09:21:50;4.50;;;2.53;;
75169;SDS011;63749;49.186;9.222;2022-11-20T09:24:16;4.30;;;2.40;;
75169;SDS011;63749;49.186;9.222;2022-11-20T09:26:42;3.58;;;2.10;;
75169;SDS011;63749;49.186;9.222;2022-11-20T09:29:08;2.67;;;1.80;;
75169;SDS011;63749;49.186;9.222;2022-11-20T09:31:33;3.80;;;2.10;;
75169;SDS011;63749;49.186;9.222;2022-11-20T09:33:59;3.23;;;2.10;;
75169;SDS011;63749;49.186;9.222;2022-11-20T09:36:24;3.50;;;2.10;;
75169;SDS011;63749;49.186;9.222;2022-11-20T09:38:49;3.77;;;2.20;;
75169;SDS011;63749;49.186;9.222;2022-11-20T09:46:36;4.03;;;2.67;;
75169;SDS011;63749;49.186;9.222;2022-11-20T09:49:30;4.57;;;2.80;;
75169;SDS011;63749;49.186;9.222;2022-11-20T09:54:47;7.35;;;3.05;;
75169;SDS011;63749;49.186;9.222;2022-11-20T09:57:17;5.07;;;3.27;;
75169;SDS011;63749;49.186;9.222;2022-11-20T09:59:48;5.13;;;3.00;;
75169;SDS011;63749;49.186;9.222;2022-11-20T10:04:51;5.82;;;3.70;;
75169;SDS011;63749;49.186;9.222;2022-11-20T10:07:30;7.60;;;3.50;;
75169;SDS011;63749;49.186;9.222;2022-11-20T10:10:03;7.67;;;4.10;;
75169;SDS011;63749;49.186;9.222;2022-11-20T10:15:18;7.82;;;4.30;;
75169;SDS011;63749;49.186;9.222;2022-11-20T10:18:43;6.50;;;4.05;;
75169;SDS011;63749;49.186;9.222;2022-11-20T10:20:58;5.70;;;3.67;;
75169;SDS011;63749;49.186;9.222;2022-11-20T10:31:27;5.43;;;3.60;;
75169;SDS011;63749;49.186;9.222;2022-11-20T10:33:59;4.75;;;3.30;;
75169;SDS011;63749;49.186;9.222;2022-11-20T10:36:30;5.53;;;2.87;;
75169;SDS011;63749;49.186;9.222;2022-11-20T10:39:03;4.50;;;2.78;;
75169;SDS011;63749;49.186;9.222;2022-11-20T10:41:38;4.70;;;2.47;;
75169;SDS011;63749;49.186;9.222;2022-11-20T10:47:01;4.65;;;2.88;;
75169;SDS011;63749;49.186;9.222;2022-11-20T10:49:30;5.50;;;2.70;;
75169;SDS011;63749;49.186;9.222;2022-11-20T10:52:04;5.03;;;2.75;;
75169;SDS011;63749;49.186;9.222;2022-11-20T11:00:05;6.15;;;3.50;;
75169;SDS011;63749;49.186;9.222;2022-11-20T11:02:44;9.33;;;5.37;;
75169;SDS011;63749;49.186;9.222;2022-11-20T11:07:59;8.38;;;3.78;;
75169;SDS011;63749;49.186;9.222;2022-11-20T11:10:31;5.90;;;3.33;;
75169;SDS011;63749;49.186;9.222;2022-11-20T11:13:23;4.10;;;2.63;;
75169;SDS011;63749;49.186;9.222;2022-11-20T11:15:50;5.13;;;3.10;;
75169;SDS011;63749;49.186;9.222;2022-11-20T11:18:49;5.13;;;3.30;;
75169;SDS011;63749;49.186;9.222;2022-11-20T11:21:08;5.33;;;3.30;;
75169;SDS011;63749;49.186;9.222;2022-11-20T11:23:38;4.50;;;2.97;;
75169;SDS011;63749;49.186;9.222;2022-11-20T11:26:06;6.20;;;2.85;;
75169;SDS011;63749;49.186;9.222;2022-11-20T11:28:42;5.43;;;2.92;;
75169;SDS011;63749;49.186;9.222;2022-11-20T11:31:28;4.10;;;2.88;;
75169;SDS011;63749;49.186;9.222;2022-11-20T11:34:10;5.17;;;2.83;;
75169;SDS011;63749;49.186;9.222;2022-11-20T11:36:37;4.85;;;2.92;;
75169;SDS011;63749;49.186;9.222;2022-11-20T11:39:04;6.53;;;3.20;;
75169;SDS011;63749;49.186;9.222;2022-11-20T11:41:32;6.70;;;3.20;;
75169;SDS011;63749;49.186;9.222;2022-11-20T11:44:18;7.53;;;3.42;;
75169;SDS011;63749;49.186;9.222;2022-11-20T11:47:04;5.30;;;3.30;;
75169;SDS011;63749;49.186;9.222;2022-11-20T11:49:36;6.72;;;3.70;;
75169;SDS011;63749;49.186;9.222;2022-11-20T11:57:31;8.73;;;3.83;;
75169;SDS011;63749;49.186;9.222;2022-11-20T12:05:22;6.33;;;3.70;;
75169;SDS011;63749;49.186;9.222;2022-11-20T12:07:52;6.30;;;3.72;;
75169;SDS011;63749;49.186;9.222;2022-11-20T12:10:24;6.43;;;3.58;;
75169;SDS011;63749;49.186;9.222;2022-11-20T12:13:04;6.60;;;3.42;;
75169;SDS011;63749;49.186;9.222;2022-11-20T12:15:40;8.02;;;3.30;;
75169;SDS011;63749;49.186;9.222;2022-11-20T12:18:13;6.90;;;3.13;;
75169;SDS011;63749;49.186;9.222;2022-11-20T12:20:45;5.68;;;2.95;;
75169;SDS011;63749;49.186;9.222;2022-11-20T12:26:13;7.30;;;3.40;;
75169;SDS011;63749;49.186;9.222;2022-11-20T12:34:30;5.20;;;2.67;;
75169;SDS011;63749;49.186;9.222;2022-11-20T12:37:28;5.28;;;2.53;;
75169;SDS011;63749;49.186;9.222;2022-11-20T12:40:17;4.88;;;2.40;;
75169;SDS011;63749;49.186;9.222;2022-11-20T12:42:52;5.25;;;2.70;;
75169;SDS011;63749;49.186;9.222;2022-11-20T12:48:41;4.90;;;2.78;;
75169;SDS011;63749;49.186;9.222;2022-11-20T12:51:14;5.80;;;3.00;;
75169;SDS011;63749;49.186;9.222;2022-11-20T12:53:58;7.15;;;2.90;;
75169;SDS011;63749;49.186;9.222;2022-11-20T12:56:35;5.85;;;2.85;;
75169;SDS011;63749;49.186;9.222;2022-11-20T13:04:16;7.30;;;3.05;;
75169;SDS011;63749;49.186;9.222;2022-11-20T13:06:55;5.53;;;2.70;;
75169;SDS011;63749;49.186;9.222;2022-11-20T13:09:21;5.93;;;2.90;;
75169;SDS011;63749;49.186;9.222;2022-11-20T13:11:57;5.43;;;3.03;;
75169;SDS011;63749;49.186;9.222;2022-11-20T13:14:42;7.43;;;3.30;;
75169;SDS011;63749;49.186;9.222;2022-11-20T13:17:18;6.25;;;3.10;;
75169;SDS011;63749;49.186;9.222;2022-11-20T13:19:53;8.82;;;3.70;;
75169;SDS011;63749;49.186;9.222;2022-11-20T13:22:27;5.63;;;2.88;;
75169;SDS011;63749;49.186;9.222;2022-11-20T13:24:54;7.80;;;2.93;;
75169;SDS011;63749;49.186;9.222;2022-11-20T13:27:20;5.90;;;2.80;;
75169;SDS011;63749;49.186;9.222;2022-11-20T13:30:02;5.87;;;2.70;;
75169;SDS011;63749;49.186;9.222;2022-11-20T13:35:30;6.47;;;3.00;;
75169;SDS011;63749;49.186;9.222;2022-11-20T13:38:07;7.80;;;2.70;;
75169;SDS011;63749;49.186;9.222;2022-11-20T13:40:34;6.75;;;3.20;;
75169;SDS011;63749;49.186;9.222;2022-11-20T13:44:04;5.00;;;3.17;;
75169;SDS011;63749;49.186;9.222;2022-11-20T13:46:03;4.45;;;2.80;;
75169;SDS011;63749;49.186;9.222;2022-11-20T13:48:31;6.18;;;3.10;;
75169;SDS011;63749;49.186;9.222;2022-11-20T13:51:04;3.78;;;2.42;;
75169;SDS011;63749;49.186;9.222;2022-11-20T13:59:51;4.07;;;1.80;;
75169;SDS011;63749;49.186;9.222;2022-11-20T14:02:19;4.07;;;1.70;;
75169;SDS011;63749;49.186;9.222;2022-11-20T14:04:47;3.03;;;1.80;;
75169;SDS011;63749;49.186;9.222;2022-11-20T14:07:15;4.05;;;1.85;;
75169;SDS011;63749;49.186;9.222;2022-11-20T14:09:52;6.23;;;2.00;;
75169;SDS011;63749;49.186;9.222;2022-11-20T14:12:21;3.17;;;1.67;;
75169;SDS011;63749;49.186;9.222;2022-11-20T14:14:55;3.60;;;2.00;;
75169;SDS011;63749;49.186;9.222;2022-11-20T14:19:48;4.05;;;1.55;;
75169;SDS011;63749;49.186;9.222;2022-11-20T14:22:25;6.03;;;2.63;;
75169;SDS011;63749;49.186;9.222;2022-11-20T14:25:02;4.35;;;1.88;;
75169;SDS011;63749;49.186;9.222;2022-11-20T14:27:52;3.70;;;1.90;;
75169;SDS011;63749;49.186;9.222;2022-11-20T14:30:23;7.20;;;2.00;;
75169;SDS011;63749;49.186;9.222;2022-11-20T14:32:50;5.90;;;1.95;;
75169;SDS011;63749;49.186;9.222;2022-11-20T14:35:28;7.78;;;1.70;;
75169;SDS011;63749;49.186;9.222;2022-11-20T14:37:55;5.10;;;1.30;;
75169;SDS011;63749;49.186;9.222;2022-11-20T14:42:47;5.95;;;2.13;;
75169;SDS011;63749;49.186;9.222;2022-11-20T14:45:12;3.70;;;1.30;;
75169;SDS011;63749;49.186;9.222;2022-11-20T14:47:38;2.80;;;1.40;;
75169;SDS011;63749;49.186;9.222;2022-11-20T14:50:07;5.82;;;1.58;;
75169;SDS011;63749;49.186;9.222;2022-11-20T14:52:58;3.93;;;1.30;;
75169;SDS011;63749;49.186;9.222;2022-11-20T14:55:35;4.05;;;1.00;;
75169;SDS011;63749;49.186;9.222;2022-11-20T14:58:04;2.63;;;1.02;;
75169;SDS011;63749;49.186;9.222;2022-11-20T15:00:32;3.85;;;1.27;;
75169;SDS011;63749;49.186;9.222;2022-11-20T15:02:59;4.35;;;1.20;;
75169;SDS011;63749;49.186;9.222;2022-11-20T15:05:26;3.50;;;1.00;;
75169;SDS011;63749;49.186;9.222;2022-11-20T15:08:09;4.93;;;1.30;;
75169;SDS011;63749;49.186;9.222;2022-11-20T15:10:36;2.67;;;1.13;;
75169;SDS011;63749;49.186;9.222;2022-11-20T15:13:04;2.75;;;1.20;;
75169;SDS011;63749;49.186;9.222;2022-11-20T15:15:36;5.25;;;1.50;;
75169;SDS011;63749;49.186;9.222;2022-11-20T15:18:18;8.45;;;2.10;;
75169;SDS011;63749;49.186;9.222;2022-11-20T15:20:46;2.80;;;1.40;;
75169;SDS011;63749;49.186;9.222;2022-11-20T15:23:13;3.47;;;1.40;;
75169;SDS011;63749;49.186;9.222;2022-11-20T15:25:40;3.90;;;1.50;;
75169;SDS011;63749;49.186;9.222;2022-11-20T15:28:15;2.50;;;1.20;;
75169;SDS011;63749;49.186;9.222;2022-11-20T15:31:01;5.30;;;1.50;;
75169;SDS011;63749;49.186;9.222;2022-11-20T15:33:28;3.05;;;1.20;;
75169;SDS011;63749;49.186;9.222;2022-11-20T15:35:53;3.77;;;1.30;;
75169;SDS011;63749;49.186;9.222;2022-11-20T15:38:19;3.72;;;1.40;;
75169;SDS011;63749;49.186;9.222;2022-11-20T15:40:44;4.73;;;1.30;;
75169;SDS011;63749;49.186;9.222;2022-11-20T15:43:09;2.30;;;1.13;;
75169;SDS011;63749;49.186;9.222;2022-11-20T15:48:05;4.05;;;1.55;;
75169;SDS011;63749;49.186;9.222;2022-11-20T15:50:37;3.50;;;1.87;;
75169;SDS011;63749;49.186;9.222;2022-11-20T15:53:05;4.47;;;2.00;;
75169;SDS011;63749;49.186;9.222;2022-11-20T15:55:31;6.00;;;2.90;;
75169;SDS011;63749;49.186;9.222;2022-11-20T15:57:57;6.00;;;2.90;;
75169;SDS011;63749;49.186;9.222;2022-11-20T16:00:22;8.87;;;2.80;;
75169;SDS011;63749;49.186;9.222;2022-11-20T16:02:47;10.52;;;2.90;;
75169;SDS011;63749;49.186;9.222;2022-11-20T16:05:13;6.90;;;2.30;;
75169;SDS011;63749;49.186;9.222;2022-11-20T16:07:39;4.47;;;2.53;;
75169;SDS011;63749;49.186;9.222;2022-11-20T16:10:05;5.93;;;2.65;;